sensor_id;sensor_type;location;lat;lon;timestamp;temperature;humidity
67897;DHT22;54698;48.428;9.964;2022-12-18T00:01:25;-5.20;99.90
67897;DHT22;54698;48.428;9.964;2022-12-18T00:03:52;-5.30;99.90
67897;DHT22;54698;48.428;9.964;2022-12-18T00:06:20;-5.30;99.90
67897;DHT22;54698;48.428;9.964;2022-12-18T00:08:46;-5.30;99.90
67897;DHT22;54698;48.428;9.964;2022-12-18T00:11:14;-5.40;99.90
67897;DHT22;54698;48.428;9.964;2022-12-18T00:13:42;-5.40;99.90
67897;DHT22;54698;48.428;9.964;2022-12-18T00:16:10;-5.40;99.90
67897;DHT22;54698;48.428;9.964;2022-12-18T00:18:37;-5.30;99.90
67897;DHT22;54698;48.428;9.964;2022-12-18T00:21:06;-5.40;99.90
67897;DHT22;54698;48.428;9.964;2022-12-18T00:23:34;-5.40;99.90
67897;DHT22;54698;48.428;9.964;2022-12-18T00:26:01;-5.40;99.90
67897;DHT22;54698;48.428;9.964;2022-12-18T00:28:27;-5.50;99.90
67897;DHT22;54698;48.428;9.964;2022-12-18T00:31:00;-5.50;99.90
67897;DHT22;54698;48.428;9.964;2022-12-18T00:33:27;-5.60;99.90
67897;DHT22;54698;48.428;9.964;2022-12-18T00:35:52;-5.50;99.90
67897;DHT22;54698;48.428;9.964;2022-12-18T00:38:18;-5.50;99.90
67897;DHT22;54698;48.428;9.964;2022-12-18T00:40:44;-5.40;99.90
67897;DHT22;54698;48.428;9.964;2022-12-18T00:43:10;-5.40;99.90
67897;DHT22;54698;48.428;9.964;2022-12-18T00:45:36;-5.40;99.90
67897;DHT22;54698;48.428;9.964;2022-12-18T00:48:03;-5.50;99.90
67897;DHT22;54698;48.428;9.964;2022-12-18T00:50:30;-5.50;99.90
67897;DHT22;54698;48.428;9.964;2022-12-18T00:52:55;-5.60;99.90
67897;DHT22;54698;48.428;9.964;2022-12-18T00:55:21;-5.60;99.90
67897;DHT22;54698;48.428;9.964;2022-12-18T00:57:47;-5.60;99.90
67897;DHT22;54698;48.428;9.964;2022-12-18T01:00:14;-5.70;99.90
67897;DHT22;54698;48.428;9.964;2022-12-18T01:02:41;-5.70;99.90
67897;DHT22;54698;48.428;9.964;2022-12-18T01:05:09;-5.70;99.90
67897;DHT22;54698;48.428;9.964;2022-12-18T01:07:36;-5.70;99.90
67897;DHT22;54698;48.428;9.964;2022-12-18T01:10:03;-5.70;99.90
67897;DHT22;54698;48.428;9.964;2022-12-18T01:12:29;-5.60;99.90
67897;DHT22;54698;48.428;9.964;2022-12-18T01:14:55;-5.50;99.90
67897;DHT22;54698;48.428;9.964;2022-12-18T01:17:21;-5.60;99.90
67897;DHT22;54698;48.428;9.964;2022-12-18T01:19:47;-5.50;99.90
67897;DHT22;54698;48.428;9.964;2022-12-18T01:22:15;-5.60;99.90
67897;DHT22;54698;48.428;9.964;2022-12-18T01:24:40;-5.60;99.90
67897;DHT22;54698;48.428;9.964;2022-12-18T01:27:06;-5.50;99.90
67897;DHT22;54698;48.428;9.964;2022-12-18T01:29:32;-5.50;99.90
67897;DHT22;54698;48.428;9.964;2022-12-18T01:31:58;-5.60;99.90
67897;DHT22;54698;48.428;9.964;2022-12-18T01:34:24;-5.50;99.90
67897;DHT22;54698;48.428;9.964;2022-12-18T01:36:50;-5.60;99.90
67897;DHT22;54698;48.428;9.964;2022-12-18T01:39:18;-5.50;99.90
67897;DHT22;54698;48.428;9.964;2022-12-18T01:41:44;-5.50;99.90
67897;DHT22;54698;48.428;9.964;2022-12-18T01:47:26;-5.40;99.90
67897;DHT22;54698;48.428;9.964;2022-12-18T01:49:55;-5.40;99.90
67897;DHT22;54698;48.428;9.964;2022-12-18T01:52:24;-5.40;99.90
67897;DHT22;54698;48.428;9.964;2022-12-18T01:54:53;-5.40;99.90
67897;DHT22;54698;48.428;9.964;2022-12-18T01:57:19;-5.40;99.90
67897;DHT22;54698;48.428;9.964;2022-12-18T01:59:49;-5.40;99.90
67897;DHT22;54698;48.428;9.964;2022-12-18T02:02:17;-5.30;99.90
67897;DHT22;54698;48.428;9.964;2022-12-18T02:04:43;-5.30;99.90
67897;DHT22;54698;48.428;9.964;2022-12-18T02:07:17;-5.30;99.90
67897;DHT22;54698;48.428;9.964;2022-12-18T02:09:48;-5.30;99.90
67897;DHT22;54698;48.428;9.964;2022-12-18T02:12:20;-5.30;99.90
67897;DHT22;54698;48.428;9.964;2022-12-18T02:14:55;-5.30;99.90
67897;DHT22;54698;48.428;9.964;2022-12-18T02:17:29;-5.30;99.90
67897;DHT22;54698;48.428;9.964;2022-12-18T02:20:08;-5.30;99.90
67897;DHT22;54698;48.428;9.964;2022-12-18T02:22:54;-5.30;99.90
67897;DHT22;54698;48.428;9.964;2022-12-18T02:25:40;-5.30;99.90
67897;DHT22;54698;48.428;9.964;2022-12-18T02:28:19;-5.40;99.90
67897;DHT22;54698;48.428;9.964;2022-12-18T02:30:48;-5.50;99.90
67897;DHT22;54698;48.428;9.964;2022-12-18T02:33:15;-5.40;99.90
67897;DHT22;54698;48.428;9.964;2022-12-18T02:35:42;-5.40;99.90
67897;DHT22;54698;48.428;9.964;2022-12-18T02:38:11;-5.50;99.90
67897;DHT22;54698;48.428;9.964;2022-12-18T02:40:38;-5.50;99.90
67897;DHT22;54698;48.428;9.964;2022-12-18T02:43:09;-5.40;99.90
67897;DHT22;54698;48.428;9.964;2022-12-18T02:45:36;-5.50;99.90
67897;DHT22;54698;48.428;9.964;2022-12-18T02:48:11;-5.40;99.90
67897;DHT22;54698;48.428;9.964;2022-12-18T02:50:44;-5.40;99.90
67897;DHT22;54698;48.428;9.964;2022-12-18T02:53:18;-5.30;99.90
67897;DHT22;54698;48.428;9.964;2022-12-18T02:55:55;-5.30;99.90
67897;DHT22;54698;48.428;9.964;2022-12-18T02:58:33;-5.30;99.90
67897;DHT22;54698;48.428;9.964;2022-12-18T03:01:08;-5.20;99.90
67897;DHT22;54698;48.428;9.964;2022-12-18T03:03:39;-5.20;99.90
67897;DHT22;54698;48.428;9.964;2022-12-18T03:06:10;-5.30;99.90
67897;DHT22;54698;48.428;9.964;2022-12-18T03:08:40;-5.20;99.90
67897;DHT22;54698;48.428;9.964;2022-12-18T03:11:10;-5.20;99.90
67897;DHT22;54698;48.428;9.964;2022-12-18T03:13:43;-5.20;99.90
67897;DHT22;54698;48.428;9.964;2022-12-18T03:16:15;-5.20;99.90
67897;DHT22;54698;48.428;9.964;2022-12-18T03:18:47;-5.20;99.90
67897;DHT22;54698;48.428;9.964;2022-12-18T03:21:16;-5.20;99.90
67897;DHT22;54698;48.428;9.964;2022-12-18T03:23:48;-5.10;99.90
67897;DHT22;54698;48.428;9.964;2022-12-18T03:26:16;-5.20;99.90
67897;DHT22;54698;48.428;9.964;2022-12-18T03:28:51;-5.10;99.90
67897;DHT22;54698;48.428;9.964;2022-12-18T03:31:21;-5.10;99.90
67897;DHT22;54698;48.428;9.964;2022-12-18T03:33:53;-5.20;99.90
67897;DHT22;54698;48.428;9.964;2022-12-18T03:36:19;-5.10;99.90
67897;DHT22;54698;48.428;9.964;2022-12-18T03:38:45;-5.20;99.90
67897;DHT22;54698;48.428;9.964;2022-12-18T03:41:17;-5.20;99.90
67897;DHT22;54698;48.428;9.964;2022-12-18T03:43:49;-5.20;99.90
67897;DHT22;54698;48.428;9.964;2022-12-18T03:46:20;-5.20;99.90
67897;DHT22;54698;48.428;9.964;2022-12-18T03:48:53;-5.20;99.90
67897;DHT22;54698;48.428;9.964;2022-12-18T03:51:28;-5.20;99.90
67897;DHT22;54698;48.428;9.964;2022-12-18T03:54:01;-5.20;99.90
67897;DHT22;54698;48.428;9.964;2022-12-18T03:56:31;-5.30;99.90
67897;DHT22;54698;48.428;9.964;2022-12-18T03:59:01;-5.30;99.90
67897;DHT22;54698;48.428;9.964;2022-12-18T04:01:33;-5.30;99.90
67897;DHT22;54698;48.428;9.964;2022-12-18T04:04:01;-5.20;99.90
67897;DHT22;54698;48.428;9.964;2022-12-18T04:06:29;-5.20;99.90
67897;DHT22;54698;48.428;9.964;2022-12-18T04:08:56;-5.20;99.90
67897;DHT22;54698;48.428;9.964;2022-12-18T04:11:22;-5.20;99.90
67897;DHT22;54698;48.428;9.964;2022-12-18T04:13:48;-5.20;99.90
67897;DHT22;54698;48.428;9.964;2022-12-18T04:16:15;-5.20;99.90
67897;DHT22;54698;48.428;9.964;2022-12-18T04:18:41;-5.20;99.90
67897;DHT22;54698;48.428;9.964;2022-12-18T04:21:07;-5.20;99.90
67897;DHT22;54698;48.428;9.964;2022-12-18T04:23:33;-5.20;99.90
67897;DHT22;54698;48.428;9.964;2022-12-18T04:25:59;-5.30;99.90
67897;DHT22;54698;48.428;9.964;2022-12-18T04:28:25;-5.20;99.90
67897;DHT22;54698;48.428;9.964;2022-12-18T04:30:51;-5.20;99.90
67897;DHT22;54698;48.428;9.964;2022-12-18T04:33:18;-5.30;99.90
67897;DHT22;54698;48.428;9.964;2022-12-18T04:35:44;-5.30;99.90
67897;DHT22;54698;48.428;9.964;2022-12-18T04:38:10;-5.40;99.90
67897;DHT22;54698;48.428;9.964;2022-12-18T04:40:37;-5.40;99.90
67897;DHT22;54698;48.428;9.964;2022-12-18T04:43:03;-5.40;99.90
67897;DHT22;54698;48.428;9.964;2022-12-18T04:45:29;-5.40;99.90
67897;DHT22;54698;48.428;9.964;2022-12-18T04:47:57;-5.40;99.90
67897;DHT22;54698;48.428;9.964;2022-12-18T04:50:24;-5.30;99.90
67897;DHT22;54698;48.428;9.964;2022-12-18T04:52:50;-5.40;99.90
67897;DHT22;54698;48.428;9.964;2022-12-18T04:55:16;-5.40;99.90
67897;DHT22;54698;48.428;9.964;2022-12-18T04:57:41;-5.40;99.90
67897;DHT22;54698;48.428;9.964;2022-12-18T05:00:08;-5.40;99.90
67897;DHT22;54698;48.428;9.964;2022-12-18T05:02:35;-5.50;99.90
67897;DHT22;54698;48.428;9.964;2022-12-18T05:05:01;-5.50;99.90
67897;DHT22;54698;48.428;9.964;2022-12-18T05:07:29;-5.40;99.90
67897;DHT22;54698;48.428;9.964;2022-12-18T05:09:55;-5.40;99.90
67897;DHT22;54698;48.428;9.964;2022-12-18T05:12:21;-5.40;99.90
67897;DHT22;54698;48.428;9.964;2022-12-18T05:14:46;-5.40;99.90
67897;DHT22;54698;48.428;9.964;2022-12-18T05:17:12;-5.40;99.90
67897;DHT22;54698;48.428;9.964;2022-12-18T05:19:38;-5.50;99.90
67897;DHT22;54698;48.428;9.964;2022-12-18T05:22:04;-5.50;99.90
67897;DHT22;54698;48.428;9.964;2022-12-18T05:24:31;-5.50;99.90
67897;DHT22;54698;48.428;9.964;2022-12-18T05:26:57;-5.50;99.90
67897;DHT22;54698;48.428;9.964;2022-12-18T05:29:23;-5.50;99.90
67897;DHT22;54698;48.428;9.964;2022-12-18T05:31:49;-5.50;99.90
67897;DHT22;54698;48.428;9.964;2022-12-18T05:34:15;-5.50;99.90
67897;DHT22;54698;48.428;9.964;2022-12-18T05:36:41;-5.40;99.90
67897;DHT22;54698;48.428;9.964;2022-12-18T05:39:07;-5.40;99.90
67897;DHT22;54698;48.428;9.964;2022-12-18T05:41:34;-5.40;99.90
67897;DHT22;54698;48.428;9.964;2022-12-18T05:44:00;-5.40;99.90
67897;DHT22;54698;48.428;9.964;2022-12-18T05:46:26;-5.50;99.90
67897;DHT22;54698;48.428;9.964;2022-12-18T05:48:52;-5.50;99.90
67897;DHT22;54698;48.428;9.964;2022-12-18T05:51:20;-5.40;99.90
67897;DHT22;54698;48.428;9.964;2022-12-18T05:53:48;-5.30;99.90
67897;DHT22;54698;48.428;9.964;2022-12-18T05:56:16;-5.40;99.90
67897;DHT22;54698;48.428;9.964;2022-12-18T05:58:45;-5.30;99.90
67897;DHT22;54698;48.428;9.964;2022-12-18T06:01:14;-5.30;99.90
67897;DHT22;54698;48.428;9.964;2022-12-18T06:03:42;-5.30;99.90
67897;DHT22;54698;48.428;9.964;2022-12-18T06:06:15;-5.30;99.90
67897;DHT22;54698;48.428;9.964;2022-12-18T06:08:42;-5.30;99.90
67897;DHT22;54698;48.428;9.964;2022-12-18T06:11:07;-5.30;99.90
67897;DHT22;54698;48.428;9.964;2022-12-18T06:13:33;-5.30;99.90
67897;DHT22;54698;48.428;9.964;2022-12-18T06:16:03;-5.30;99.90
67897;DHT22;54698;48.428;9.964;2022-12-18T06:18:29;-5.30;99.90
67897;DHT22;54698;48.428;9.964;2022-12-18T06:20:55;-5.30;99.90
67897;DHT22;54698;48.428;9.964;2022-12-18T06:23:21;-5.40;99.90
67897;DHT22;54698;48.428;9.964;2022-12-18T06:25:47;-5.40;99.90
67897;DHT22;54698;48.428;9.964;2022-12-18T06:28:13;-5.50;99.90
67897;DHT22;54698;48.428;9.964;2022-12-18T06:30:38;-5.50;99.90
67897;DHT22;54698;48.428;9.964;2022-12-18T06:33:06;-5.50;99.90
67897;DHT22;54698;48.428;9.964;2022-12-18T06:35:32;-5.50;99.90
67897;DHT22;54698;48.428;9.964;2022-12-18T06:37:58;-5.50;99.90
67897;DHT22;54698;48.428;9.964;2022-12-18T06:40:23;-5.40;99.90
67897;DHT22;54698;48.428;9.964;2022-12-18T06:42:49;-5.40;99.90
67897;DHT22;54698;48.428;9.964;2022-12-18T06:45:15;-5.30;99.90
67897;DHT22;54698;48.428;9.964;2022-12-18T06:47:41;-5.30;99.90
67897;DHT22;54698;48.428;9.964;2022-12-18T06:50:09;-5.40;99.90
67897;DHT22;54698;48.428;9.964;2022-12-18T06:52:34;-5.40;99.90
67897;DHT22;54698;48.428;9.964;2022-12-18T06:55:00;-5.50;99.90
67897;DHT22;54698;48.428;9.964;2022-12-18T06:57:26;-5.30;99.90
67897;DHT22;54698;48.428;9.964;2022-12-18T06:59:52;-5.30;99.90
67897;DHT22;54698;48.428;9.964;2022-12-18T07:02:18;-5.30;99.90
67897;DHT22;54698;48.428;9.964;2022-12-18T07:04:43;-5.30;99.90
67897;DHT22;54698;48.428;9.964;2022-12-18T07:07:11;-5.30;99.90
67897;DHT22;54698;48.428;9.964;2022-12-18T07:09:36;-5.20;99.90
67897;DHT22;54698;48.428;9.964;2022-12-18T07:12:02;-5.10;99.90
67897;DHT22;54698;48.428;9.964;2022-12-18T07:14:28;-5.20;99.90
67897;DHT22;54698;48.428;9.964;2022-12-18T07:16:54;-5.20;99.90
67897;DHT22;54698;48.428;9.964;2022-12-18T07:19:20;-5.10;99.90
67897;DHT22;54698;48.428;9.964;2022-12-18T07:21:46;-5.10;99.90
67897;DHT22;54698;48.428;9.964;2022-12-18T07:24:13;-5.10;99.90
67897;DHT22;54698;48.428;9.964;2022-12-18T07:26:39;-5.10;99.90
67897;DHT22;54698;48.428;9.964;2022-12-18T07:29:05;-5.10;99.90
67897;DHT22;54698;48.428;9.964;2022-12-18T07:31:30;-5.10;99.90
67897;DHT22;54698;48.428;9.964;2022-12-18T07:33:56;-5.00;99.90
67897;DHT22;54698;48.428;9.964;2022-12-18T07:36:24;-4.90;99.90
67897;DHT22;54698;48.428;9.964;2022-12-18T07:38:51;-4.90;99.90
67897;DHT22;54698;48.428;9.964;2022-12-18T07:41:18;-4.90;99.90
67897;DHT22;54698;48.428;9.964;2022-12-18T07:43:44;-4.90;99.90
67897;DHT22;54698;48.428;9.964;2022-12-18T07:46:12;-4.90;99.90
67897;DHT22;54698;48.428;9.964;2022-12-18T07:48:38;-4.90;99.90
67897;DHT22;54698;48.428;9.964;2022-12-18T07:51:06;-4.80;99.90
67897;DHT22;54698;48.428;9.964;2022-12-18T07:53:33;-4.80;99.90
67897;DHT22;54698;48.428;9.964;2022-12-18T07:56:01;-4.70;99.90
67897;DHT22;54698;48.428;9.964;2022-12-18T07:58:29;-4.60;99.90
67897;DHT22;54698;48.428;9.964;2022-12-18T08:01:03;-4.60;99.90
67897;DHT22;54698;48.428;9.964;2022-12-18T08:03:30;-4.50;99.90
67897;DHT22;54698;48.428;9.964;2022-12-18T08:05:58;-4.50;99.90
67897;DHT22;54698;48.428;9.964;2022-12-18T08:08:25;-4.50;99.90
67897;DHT22;54698;48.428;9.964;2022-12-18T08:10:51;-4.40;99.90
67897;DHT22;54698;48.428;9.964;2022-12-18T08:13:17;-4.40;99.90
67897;DHT22;54698;48.428;9.964;2022-12-18T08:15:44;-4.40;99.90
67897;DHT22;54698;48.428;9.964;2022-12-18T08:18:10;-4.30;99.90
67897;DHT22;54698;48.428;9.964;2022-12-18T08:20:36;-4.30;99.90
67897;DHT22;54698;48.428;9.964;2022-12-18T08:23:01;-4.30;99.90
67897;DHT22;54698;48.428;9.964;2022-12-18T08:25:27;-4.30;99.90
67897;DHT22;54698;48.428;9.964;2022-12-18T08:27:53;-4.20;99.90
67897;DHT22;54698;48.428;9.964;2022-12-18T08:30:19;-4.20;99.90
67897;DHT22;54698;48.428;9.964;2022-12-18T08:32:46;-4.20;99.90
67897;DHT22;54698;48.428;9.964;2022-12-18T08:35:12;-4.20;99.90
67897;DHT22;54698;48.428;9.964;2022-12-18T08:37:38;-4.20;99.90
67897;DHT22;54698;48.428;9.964;2022-12-18T08:40:05;-4.10;99.90
67897;DHT22;54698;48.428;9.964;2022-12-18T08:42:35;-4.10;99.90
67897;DHT22;54698;48.428;9.964;2022-12-18T08:45:01;-4.10;99.90
67897;DHT22;54698;48.428;9.964;2022-12-18T08:47:27;-4.00;99.90
67897;DHT22;54698;48.428;9.964;2022-12-18T08:49:54;-4.00;99.90
67897;DHT22;54698;48.428;9.964;2022-12-18T08:52:20;-4.00;99.90
67897;DHT22;54698;48.428;9.964;2022-12-18T08:54:46;-3.90;99.90
67897;DHT22;54698;48.428;9.964;2022-12-18T08:57:12;-3.90;99.90
67897;DHT22;54698;48.428;9.964;2022-12-18T08:59:38;-3.90;99.90
67897;DHT22;54698;48.428;9.964;2022-12-18T09:02:03;-3.80;99.90
67897;DHT22;54698;48.428;9.964;2022-12-18T09:04:29;-3.80;99.90
67897;DHT22;54698;48.428;9.964;2022-12-18T09:06:58;-3.80;99.90
67897;DHT22;54698;48.428;9.964;2022-12-18T09:09:24;-3.80;99.90
67897;DHT22;54698;48.428;9.964;2022-12-18T09:11:50;-3.80;99.90
67897;DHT22;54698;48.428;9.964;2022-12-18T09:14:16;-3.80;99.90
67897;DHT22;54698;48.428;9.964;2022-12-18T09:16:42;-3.70;99.90
67897;DHT22;54698;48.428;9.964;2022-12-18T09:19:12;-3.60;99.90
67897;DHT22;54698;48.428;9.964;2022-12-18T09:21:38;-3.50;99.90
67897;DHT22;54698;48.428;9.964;2022-12-18T09:24:06;-3.50;99.90
67897;DHT22;54698;48.428;9.964;2022-12-18T09:26:34;-3.60;99.90
67897;DHT22;54698;48.428;9.964;2022-12-18T09:29:00;-3.60;99.90
67897;DHT22;54698;48.428;9.964;2022-12-18T09:31:25;-3.60;99.90
67897;DHT22;54698;48.428;9.964;2022-12-18T09:33:51;-3.60;99.90
67897;DHT22;54698;48.428;9.964;2022-12-18T09:36:17;-3.50;99.90
67897;DHT22;54698;48.428;9.964;2022-12-18T09:38:44;-3.50;99.90
67897;DHT22;54698;48.428;9.964;2022-12-18T09:41:27;-3.50;99.90
67897;DHT22;54698;48.428;9.964;2022-12-18T09:44:20;-3.40;99.90
67897;DHT22;54698;48.428;9.964;2022-12-18T09:46:53;-3.40;99.90
67897;DHT22;54698;48.428;9.964;2022-12-18T09:49:26;-3.30;99.90
67897;DHT22;54698;48.428;9.964;2022-12-18T09:51:57;-3.10;99.90
67897;DHT22;54698;48.428;9.964;2022-12-18T09:54:29;-3.10;99.90
67897;DHT22;54698;48.428;9.964;2022-12-18T09:56:59;-3.10;99.90
67897;DHT22;54698;48.428;9.964;2022-12-18T09:59:29;-3.20;99.90
67897;DHT22;54698;48.428;9.964;2022-12-18T10:01:57;-3.10;99.90
67897;DHT22;54698;48.428;9.964;2022-12-18T10:04:23;-3.00;99.90
67897;DHT22;54698;48.428;9.964;2022-12-18T10:06:54;-2.90;99.90
67897;DHT22;54698;48.428;9.964;2022-12-18T10:09:30;-2.90;99.90
67897;DHT22;54698;48.428;9.964;2022-12-18T10:12:09;-2.80;99.90
67897;DHT22;54698;48.428;9.964;2022-12-18T10:14:46;-2.80;99.90
67897;DHT22;54698;48.428;9.964;2022-12-18T10:17:24;-2.70;99.90
67897;DHT22;54698;48.428;9.964;2022-12-18T10:19:55;-2.80;99.90
67897;DHT22;54698;48.428;9.964;2022-12-18T10:22:31;-2.70;99.90
67897;DHT22;54698;48.428;9.964;2022-12-18T10:25:09;-2.80;99.90
67897;DHT22;54698;48.428;9.964;2022-12-18T10:27:42;-2.80;99.90
67897;DHT22;54698;48.428;9.964;2022-12-18T10:30:13;-2.80;99.90
67897;DHT22;54698;48.428;9.964;2022-12-18T10:32:40;-2.70;99.90
67897;DHT22;54698;48.428;9.964;2022-12-18T10:35:14;-2.70;99.90
67897;DHT22;54698;48.428;9.964;2022-12-18T10:38:02;-2.70;99.90
67897;DHT22;54698;48.428;9.964;2022-12-18T10:40:30;-2.60;99.90
67897;DHT22;54698;48.428;9.964;2022-12-18T10:43:12;-2.60;99.90
67897;DHT22;54698;48.428;9.964;2022-12-18T10:45:39;-2.60;99.90
67897;DHT22;54698;48.428;9.964;2022-12-18T10:48:18;-2.50;99.90
67897;DHT22;54698;48.428;9.964;2022-12-18T10:50:47;-2.40;99.90
67897;DHT22;54698;48.428;9.964;2022-12-18T10:53:19;-2.50;99.90
67897;DHT22;54698;48.428;9.964;2022-12-18T10:55:46;-2.60;99.90
67897;DHT22;54698;48.428;9.964;2022-12-18T10:58:25;-2.50;99.90
67897;DHT22;54698;48.428;9.964;2022-12-18T11:01:04;-2.50;99.90
67897;DHT22;54698;48.428;9.964;2022-12-18T11:03:33;-2.40;99.90
67897;DHT22;54698;48.428;9.964;2022-12-18T11:06:07;-2.40;99.90
67897;DHT22;54698;48.428;9.964;2022-12-18T11:08:34;-2.30;99.90
67897;DHT22;54698;48.428;9.964;2022-12-18T11:11:00;-2.30;99.90
67897;DHT22;54698;48.428;9.964;2022-12-18T11:13:29;-2.40;99.90
67897;DHT22;54698;48.428;9.964;2022-12-18T11:15:56;-2.40;99.90
67897;DHT22;54698;48.428;9.964;2022-12-18T11:18:25;-2.30;99.90
67897;DHT22;54698;48.428;9.964;2022-12-18T11:20:55;-2.50;99.90
67897;DHT22;54698;48.428;9.964;2022-12-18T11:23:22;-2.50;99.90
67897;DHT22;54698;48.428;9.964;2022-12-18T11:25:54;-2.40;99.90
67897;DHT22;54698;48.428;9.964;2022-12-18T11:28:25;-2.40;99.90
67897;DHT22;54698;48.428;9.964;2022-12-18T11:31:25;-2.40;99.90
67897;DHT22;54698;48.428;9.964;2022-12-18T11:34:02;-2.50;99.90
67897;DHT22;54698;48.428;9.964;2022-12-18T11:36:33;-2.50;99.90
67897;DHT22;54698;48.428;9.964;2022-12-18T11:39:13;-2.40;99.90
67897;DHT22;54698;48.428;9.964;2022-12-18T11:41:49;-2.30;99.90
67897;DHT22;54698;48.428;9.964;2022-12-18T11:44:25;-2.30;99.90
67897;DHT22;54698;48.428;9.964;2022-12-18T11:46:58;-2.30;99.90
67897;DHT22;54698;48.428;9.964;2022-12-18T11:49:29;-2.30;99.90
67897;DHT22;54698;48.428;9.964;2022-12-18T11:52:01;-2.30;99.90
67897;DHT22;54698;48.428;9.964;2022-12-18T11:54:29;-2.20;99.90
67897;DHT22;54698;48.428;9.964;2022-12-18T11:57:01;-2.10;99.90
67897;DHT22;54698;48.428;9.964;2022-12-18T11:59:39;-2.10;99.90
67897;DHT22;54698;48.428;9.964;2022-12-18T12:02:28;-2.20;99.90
67897;DHT22;54698;48.428;9.964;2022-12-18T12:05:18;-2.20;99.90
67897;DHT22;54698;48.428;9.964;2022-12-18T12:07:55;-2.10;99.90
67897;DHT22;54698;48.428;9.964;2022-12-18T12:10:33;-2.10;99.90
67897;DHT22;54698;48.428;9.964;2022-12-18T12:13:25;-2.10;99.90
67897;DHT22;54698;48.428;9.964;2022-12-18T12:16:07;-2.20;99.90
67897;DHT22;54698;48.428;9.964;2022-12-18T12:18:52;-2.20;99.90
67897;DHT22;54698;48.428;9.964;2022-12-18T12:21:37;-2.20;99.90
67897;DHT22;54698;48.428;9.964;2022-12-18T12:24:15;-2.20;99.90
67897;DHT22;54698;48.428;9.964;2022-12-18T12:26:54;-2.30;99.90
67897;DHT22;54698;48.428;9.964;2022-12-18T12:29:37;-2.20;99.90
67897;DHT22;54698;48.428;9.964;2022-12-18T12:32:21;-2.20;99.90
67897;DHT22;54698;48.428;9.964;2022-12-18T12:34:59;-2.20;99.90
67897;DHT22;54698;48.428;9.964;2022-12-18T12:37:38;-2.20;99.90
67897;DHT22;54698;48.428;9.964;2022-12-18T12:40:15;-2.10;99.90
67897;DHT22;54698;48.428;9.964;2022-12-18T12:42:45;-2.00;99.90
67897;DHT22;54698;48.428;9.964;2022-12-18T12:45:20;-2.20;99.90
67897;DHT22;54698;48.428;9.964;2022-12-18T12:47:51;-2.20;99.90
67897;DHT22;54698;48.428;9.964;2022-12-18T12:50:19;-2.20;99.90
67897;DHT22;54698;48.428;9.964;2022-12-18T12:52:48;-2.30;99.90
67897;DHT22;54698;48.428;9.964;2022-12-18T12:55:18;-2.30;99.90
67897;DHT22;54698;48.428;9.964;2022-12-18T12:57:50;-2.30;99.90
67897;DHT22;54698;48.428;9.964;2022-12-18T13:00:21;-2.40;99.90
67897;DHT22;54698;48.428;9.964;2022-12-18T13:02:52;-2.50;99.90
67897;DHT22;54698;48.428;9.964;2022-12-18T13:05:24;-2.50;99.90
67897;DHT22;54698;48.428;9.964;2022-12-18T13:07:54;-2.50;99.90
67897;DHT22;54698;48.428;9.964;2022-12-18T13:10:33;-2.40;99.90
67897;DHT22;54698;48.428;9.964;2022-12-18T13:13:02;-2.40;99.90
67897;DHT22;54698;48.428;9.964;2022-12-18T13:15:34;-2.40;99.90
67897;DHT22;54698;48.428;9.964;2022-12-18T13:18:10;-2.40;99.90
67897;DHT22;54698;48.428;9.964;2022-12-18T13:20:41;-2.50;99.90
67897;DHT22;54698;48.428;9.964;2022-12-18T13:23:29;-2.50;99.90
67897;DHT22;54698;48.428;9.964;2022-12-18T13:25:59;-2.40;99.90
67897;DHT22;54698;48.428;9.964;2022-12-18T13:29:00;-2.50;99.90
67897;DHT22;54698;48.428;9.964;2022-12-18T13:34:42;-2.60;99.90
67897;DHT22;54698;48.428;9.964;2022-12-18T13:37:37;-2.70;99.90
67897;DHT22;54698;48.428;9.964;2022-12-18T13:43:28;-2.80;99.90
67897;DHT22;54698;48.428;9.964;2022-12-18T13:46:04;-2.90;99.90
67897;DHT22;54698;48.428;9.964;2022-12-18T13:48:34;-3.00;99.90
67897;DHT22;54698;48.428;9.964;2022-12-18T13:51:05;-3.10;99.90
67897;DHT22;54698;48.428;9.964;2022-12-18T13:53:35;-3.10;99.90
67897;DHT22;54698;48.428;9.964;2022-12-18T13:56:04;-3.00;99.90
67897;DHT22;54698;48.428;9.964;2022-12-18T13:58:32;-3.00;99.90
67897;DHT22;54698;48.428;9.964;2022-12-18T14:00:57;-3.00;99.90
67897;DHT22;54698;48.428;9.964;2022-12-18T14:03:25;-3.10;99.90
67897;DHT22;54698;48.428;9.964;2022-12-18T14:05:59;-3.10;99.90
67897;DHT22;54698;48.428;9.964;2022-12-18T14:08:32;-3.10;99.90
67897;DHT22;54698;48.428;9.964;2022-12-18T14:11:00;-3.10;99.90
67897;DHT22;54698;48.428;9.964;2022-12-18T14:13:29;-3.20;99.90
67897;DHT22;54698;48.428;9.964;2022-12-18T14:16:00;-3.30;99.90
67897;DHT22;54698;48.428;9.964;2022-12-18T14:18:32;-3.40;99.90
67897;DHT22;54698;48.428;9.964;2022-12-18T14:21:04;-3.40;99.90
67897;DHT22;54698;48.428;9.964;2022-12-18T14:23:32;-3.40;99.90
67897;DHT22;54698;48.428;9.964;2022-12-18T14:26:00;-3.50;99.90
67897;DHT22;54698;48.428;9.964;2022-12-18T14:28:27;-3.40;99.90
67897;DHT22;54698;48.428;9.964;2022-12-18T14:30:55;-3.40;99.90
67897;DHT22;54698;48.428;9.964;2022-12-18T14:33:22;-3.40;99.90
67897;DHT22;54698;48.428;9.964;2022-12-18T14:35:55;-3.40;99.90
67897;DHT22;54698;48.428;9.964;2022-12-18T14:38:23;-3.50;99.90
67897;DHT22;54698;48.428;9.964;2022-12-18T14:41:00;-3.60;99.90
67897;DHT22;54698;48.428;9.964;2022-12-18T14:43:28;-3.70;99.90
67897;DHT22;54698;48.428;9.964;2022-12-18T14:45:56;-3.70;99.90
67897;DHT22;54698;48.428;9.964;2022-12-18T14:48:35;-3.70;99.90
67897;DHT22;54698;48.428;9.964;2022-12-18T14:51:05;-3.70;99.90
67897;DHT22;54698;48.428;9.964;2022-12-18T14:53:35;-3.70;99.90
67897;DHT22;54698;48.428;9.964;2022-12-18T14:56:10;-3.80;99.90
67897;DHT22;54698;48.428;9.964;2022-12-18T14:58:45;-3.80;99.90
67897;DHT22;54698;48.428;9.964;2022-12-18T15:01:23;-3.90;99.90
67897;DHT22;54698;48.428;9.964;2022-12-18T15:03:52;-4.00;99.90
67897;DHT22;54698;48.428;9.964;2022-12-18T15:06:25;-3.90;99.90
67897;DHT22;54698;48.428;9.964;2022-12-18T15:08:53;-3.90;99.90
67897;DHT22;54698;48.428;9.964;2022-12-18T15:11:32;-3.90;99.90
67897;DHT22;54698;48.428;9.964;2022-12-18T15:14:24;-3.90;99.90
67897;DHT22;54698;48.428;9.964;2022-12-18T15:16:59;-3.90;99.90
67897;DHT22;54698;48.428;9.964;2022-12-18T15:19:33;-4.10;99.90
67897;DHT22;54698;48.428;9.964;2022-12-18T15:22:01;-4.10;99.90
67897;DHT22;54698;48.428;9.964;2022-12-18T15:24:30;-4.00;99.90
67897;DHT22;54698;48.428;9.964;2022-12-18T15:26:56;-4.10;99.90
67897;DHT22;54698;48.428;9.964;2022-12-18T15:29:23;-4.20;99.90
67897;DHT22;54698;48.428;9.964;2022-12-18T15:32:01;-4.20;99.90
67897;DHT22;54698;48.428;9.964;2022-12-18T15:34:28;-4.20;99.90
67897;DHT22;54698;48.428;9.964;2022-12-18T15:36:54;-4.30;99.90
67897;DHT22;54698;48.428;9.964;2022-12-18T15:39:20;-4.30;99.90
67897;DHT22;54698;48.428;9.964;2022-12-18T15:41:46;-4.30;99.90
67897;DHT22;54698;48.428;9.964;2022-12-18T15:44:22;-4.30;99.90
67897;DHT22;54698;48.428;9.964;2022-12-18T15:46:49;-4.20;99.90
67897;DHT22;54698;48.428;9.964;2022-12-18T15:49:16;-4.20;99.90
67897;DHT22;54698;48.428;9.964;2022-12-18T15:51:42;-4.30;99.90
67897;DHT22;54698;48.428;9.964;2022-12-18T15:54:11;-4.30;99.90
67897;DHT22;54698;48.428;9.964;2022-12-18T15:56:39;-4.30;99.90